Etusivu
METAR-TAF:

METAR-TAF

Lentoasemat :

Bloemfontein, Etelä-Afrikka

Leveyspiiri: 29-06S, Pituuspiiri: 026-18E, korkeus merenpinnasta: 1354 m

Tämänhetkinen sää

Tämä raportti tehtiin 23 minuuttia sitten, kello 04.00 UTC
Tuuli 3 kn lännestä/lounaasta
Lämpötila 4°C
Kosteus 93%
Ilmanpaine 1027 hPa
Näkyvyys 10 km tai enemmän
ei pilviä alle 1500 m:ssä eikä cumulonimbus-pilviä

METAR: FABL 260400Z 24003KT CAVOK 04/03 Q1027 NOSIG

Aika: 06:23 (04:23 UTC)

Sääennuste

Tämä raportti tehtiin 6 tuntia ja 23 minuuttia sitten, kello 22.00 UTC
Ennuste voimassa 26. päivästä klo 00 UTC - 26. päivään klo 24 UTC
Tuuli 3 kn eri suunnista
Näkyvyys 10 km tai enemmän
ei pilviä alle 1500 m:ssä eikä cumulonimbus-pilviä
Todennäköisyys 30% :
Ajoittain
26. päivästä klo 04 UTC - 26. päivään klo 06 UTC
Näkyvyys: 5000 m
utua

TAF: FABL 252200Z 2600/2624 VRB03KT CAVOK TX24/2613Z TN05/2604Z PROB30 TEMPO 2604/2606 5000 BR NSC

Säähavainnot ja -ennusteet yli 4000 lentoasemalta (METAR- ja TAF-raportit).

Käytössä olevat sääasemat on merkitty karttaan keltaisilla ja punaisilla pisteillä.

Aseta hiiri pisteen päälle nähdäksesi sääaseman nimen.

Klikkaa sitten nähdäksesi säähavainnot ja -ennusteet.

Kartan vaihtaminen: klikkaa mustalla rastilla varustettuja vihreitä pisteitä, niin voit zoomata sisään; viivalla varustettua vihreää pistettä, niin voit zoomata ulos tai vihreitä nuolia, niin pääset viereisille kartoille.


METAR-TAF: